Details From EETN - TALLINN
To EVRA - Riga Intl
Flight Number -
Tags generated
Created
Modified
Stats Distance 152 nm / 282 km
Max Altitude 12,800 ft / 3,901 m
Waypoints 4
Social Downloads 18
Likes 0
Share VATSIM

Download

Looking for another format? Having issues loading an existing format? Contact us
Advertisement - Login to hide

Notes

Basic altitude profile: - Ascent Rate: 700ft/min - Ascent Speed: 80kts - Cruise Altitude: 4500ft - Cruise Speed: 100kts - Descent Rate: 700ft/min - Descent Speed: 120kts Options: - Use NATs: yes - Use PACOTS: yes - Use low airways: yes - Use high airways: yes

Route

EETN SOKVA M857 RIA EVRA

ID Type Via Altitude (ft/m) Position (lat/lon) Dist (leg/tot) Name
O EETN APT - 0 / 0 59.41326 / 24.83280 - / 0 nm TALLINN
SOKVA FIX - 12,800 / 3,901 57.90000 / 24.29944 92 / 92 nm
RIA VOR M857 (AWY-LO) 9,500 / 2,896 56.92086 / 23.96519 59 / 152 nm RIGA VOR-DME
O EVRA APT - 0 / 0 56.92366 / 23.97119 0 / 152 nm Riga Intl

Altitude Profile

Advertisement - Login to hide

EETN

Details ICAO EETN (TLL)
Name TALLINN
Region Estonia
Timezone Europe/Tallinn (UTC+2.0)
Stats Elevation 129 ft / 39 m (AMSL)
Location 59.413300° 24.832500°
Runways 1
Magnetic Variation 8.932° E

METAR

EETN 220520Z 13010KT 9999 OVC020 01/M03 Q1030 R08/11//95 NOSIG

Decode

TAF

TAF EETN 212320Z 2200/2224 15012KT 9999 BKN020

Decode

Departure Runways

ID Width Length Bearing (true/mag) Surface Threshold Overrun Markings Lighting
08 148 ft / 45 m 10,082 ft / 3,073 m 90.27° / 81.34° ASPHALT 833 ft / 254 m 0 ft / 0 m APP CENTERLINE EDGE THRESHOLD MALSF
26 148 ft / 45 m 10,082 ft / 3,073 m 270.32° / 261.39° ASPHALT 0 ft / 0 m 0 ft / 0 m APP CENTERLINE EDGE THRESHOLD MALSF

EVRA

Details ICAO EVRA (RIX)
Name Riga Intl
Region Latvia
Timezone Europe/Riga (UTC+2.0)
Stats Elevation 34 ft / 10 m (AMSL)
Location 56.920800° 23.970600°
Runways 1
Magnetic Variation 7.933° E

METAR

EVRA 220520Z 14011KT 110V170 CAVOK M00/M04 Q1029 R18/090095 NOSIG

Decode

TAF

TAF EVRA 220202Z 2203/2303 14015KT 9999 OVC020 TEMPO 2203/2204 15018G30KT TEMPO 2204/2215 14015G28KT BECMG 2221/2223 14007KT

Decode

Destination Runways

ID Width Length Bearing (true/mag) Surface Threshold Overrun Markings Lighting
18 148 ft / 45 m 10,481 ft / 3,195 m 185.13° / 177.19° ASPHALT 0 ft / 0 m 171 ft / 52 m PREC-APP EDGE THRESHOLD ALSF-I
36 148 ft / 45 m 10,481 ft / 3,195 m 5.12° / 357.19° ASPHALT 0 ft / 0 m 167 ft / 51 m PREC-APP EDGE THRESHOLD ALSF-I

Approach Navaids

Runway Type Ident Frequency Range Bearing (true/mag) Slope Elevation
18 GS IAO 110.30 MHz 10 nm / 19 km 185.29° / 177.36 ° 3.00° 34 ft / 10 m (AMSL)
18 DME IAO 110.30 MHz 18 nm / 33 km - - 0 ft / 0 m (AMSL)
18 LOC-ILS IAO 110.30 MHz 18 nm / 33 km 185.14° / 177.21 ° - 34 ft / 10 m (AMSL)
36 LOC-ILS IRP 110.30 MHz 18 nm / 33 km 5.14° / 357.21 ° - 34 ft / 10 m (AMSL)
36 DME IRP 110.30 MHz 18 nm / 33 km - - 0 ft / 0 m (AMSL)
36 GS IRP 110.30 MHz 10 nm / 19 km 5.29° / 357.36 ° 3.00° 34 ft / 10 m (AMSL)

Popular Alternatives